Time;durP1;ratioP1;P1;durP2;ratioP2;P2;SDS_P1;SDS_P2;PMS_P1;PMS_P2;Temp;Humidity;BMP_temperature;BMP_pressure;BME280_temperature;BME280_humidity;BME280_pressure;Samples;Min_cycle;Max_cycle;Signal;HPM_P1;HPM_P2
2022/03/10 00:07:26;;;;;;;7.65;3.20;;;-7.70;1.00;;;-8.67;57.76;100817.06;4810032;29;121237;-90
2022/03/10 00:10:13;;;;;;;8.13;3.22;;;-7.70;1.00;;;-8.58;57.82;100830.31;4826251;29;121471;-88
2022/03/10 00:16:17;;;;;;;5.78;2.65;;;-7.90;1.00;;;-8.70;58.57;100835.78;4853714;29;129588;-90
2022/03/10 00:19:23;;;;;;;4.25;2.05;;;-7.90;1.00;;;-8.68;58.78;100833.84;4822176;29;119172;-91
2022/03/10 00:25:42;;;;;;;6.03;2.20;;;-7.90;1.00;;;-8.74;58.61;100833.63;4840772;29;128757;-90
2022/03/10 00:28:46;;;;;;;5.03;2.33;;;-7.90;1.00;;;-8.78;58.24;100837.53;4807435;29;129274;-89
2022/03/10 00:35:05;;;;;;;5.78;2.30;;;-8.00;1.00;;;-8.90;58.70;100840.38;4837437;29;117803;-90
2022/03/10 00:38:13;;;;;;;5.55;2.17;;;-8.00;1.00;;;-8.99;58.51;100841.31;4849846;28;130187;-93
2022/03/10 00:41:00;;;;;;;5.10;2.13;;;-8.10;1.00;;;-9.00;58.89;100849.38;4851426;29;129332;-89
2022/03/10 00:46:56;;;;;;;4.38;2.40;;;-8.10;1.00;;;-9.12;58.67;100852.19;4821001;29;119413;-91
2022/03/10 00:49:29;;;;;;;7.30;2.38;;;-8.10;1.00;;;-9.15;59.00;100852.50;4820637;29;131137;-90
2022/03/10 00:52:01;;;;;;;4.20;2.20;;;-8.20;1.00;;;-9.19;59.65;100853.78;4835421;29;128715;-92
2022/03/10 00:54:31;;;;;;;4.78;2.47;;;-8.20;1.00;;;-9.24;59.08;100848.97;4835554;29;118901;-90
2022/03/10 00:57:03;;;;;;;9.75;2.45;;;-8.20;1.00;;;-9.19;59.48;100856.41;4836565;29;118842;-91
2022/03/10 00:59:34;;;;;;;5.55;2.97;;;-8.20;1.00;;;-9.14;59.71;100861.22;4820144;29;129668;-91
2022/03/10 01:02:16;;;;;;;4.20;2.03;;;-8.30;1.00;;;-9.09;59.31;100867.69;4835950;29;128100;-90
2022/03/10 01:04:45;;;;;;;4.75;2.10;;;-8.40;1.00;;;-9.27;59.64;100869.47;4821371;29;121527;-92
2022/03/10 01:07:16;;;;;;;3.88;1.95;;;-8.30;1.00;;;-9.35;60.28;100861.50;4820357;29;120996;-91
2022/03/10 01:09:52;;;;;;;5.53;2.33;;;-8.30;1.00;;;-9.28;59.79;100867.81;4835438;29;129146;-90
2022/03/10 01:25:13;;;;;;;5.22;2.72;;;-8.50;1.00;;;-9.34;60.24;100894.72;4854412;29;129450;-91
2022/03/10 01:30:59;;;;;;;4.70;2.35;;;-8.60;1.00;;;-9.55;60.67;100893.16;4835971;29;118618;-91
2022/03/10 01:37:16;;;;;;;5.97;2.88;;;-8.70;1.00;;;-9.53;60.48;100899.09;4842878;29;129878;-91
2022/03/10 01:44:09;;;;;;;4.50;2.17;;;-8.70;1.00;;;-9.57;60.82;100908.22;4837187;29;119817;-89
2022/03/10 01:47:05;;;;;;;5.90;2.60;;;-8.80;1.00;;;-9.63;60.77;100917.53;4818164;29;130268;-93
2022/03/10 01:50:25;;;;;;;6.35;2.70;;;-8.80;1.00;;;-9.68;61.77;100913.69;4798540;29;129292;-90
2022/03/10 01:53:14;;;;;;;4.82;2.20;;;-8.90;1.00;;;-9.77;61.86;100924.09;4834646;29;118633;-89
2022/03/10 01:56:18;;;;;;;4.22;2.30;;;-8.90;1.00;;;-9.81;62.19;100930.59;4835327;29;118961;-90
2022/03/10 02:03:40;;;;;;;8.27;2.63;;;-9.00;1.00;;;-9.79;61.96;100935.72;4842477;29;128827;-91
2022/03/10 02:06:12;;;;;;;4.32;1.88;;;-9.10;1.00;;;-9.89;62.43;100935.75;4847749;29;122364;-90
2022/03/10 02:23:29;;;;;;;6.47;2.30;;;-9.20;1.00;;;-10.09;63.18;100963.03;4850277;29;119973;-91
2022/03/10 02:26:23;;;;;;;6.97;2.10;;;-9.20;1.00;;;-10.05;63.00;100959.13;4849855;29;129240;-90
2022/03/10 02:32:46;;;;;;;5.10;2.05;;;-9.20;1.00;;;-10.22;63.11;100979.91;4833775;29;117911;-90
2022/03/10 02:35:47;;;;;;;4.75;2.35;;;-9.30;1.00;;;-10.16;63.11;100984.59;4851042;29;119279;-90
2022/03/10 02:42:34;;;;;;;5.35;2.50;;;-9.30;1.00;;;-10.26;62.97;100988.19;4847650;29;127875;-89
2022/03/10 02:45:29;;;;;;;6.55;2.65;;;-9.40;1.00;;;-10.21;62.51;100992.03;4852111;29;119769;-86
2022/03/10 02:48:48;;;;;;;5.20;2.40;;;-9.50;1.00;;;-10.31;63.03;100994.69;4847948;29;119625;-88
2022/03/10 02:51:40;;;;;;;5.55;2.10;;;-9.50;1.00;;;-10.36;62.89;100999.56;4860041;29;130247;-91
2022/03/10 03:08:40;;;;;;;4.55;1.98;;;-9.60;1.00;;;-10.55;62.95;101000.38;4845051;29;128833;-90
2022/03/10 03:11:20;;;;;;;;;;;-9.60;1.00;;;-10.42;62.66;101002.72;4835006;29;122029;-86
2022/03/10 03:14:06;;;;;;;6.85;2.92;;;-9.80;1.00;;;-10.39;62.53;101004.22;4846691;29;121143;-86
2022/03/10 03:16:45;;;;;;;6.13;2.70;;;-9.80;1.00;;;-10.59;62.98;101006.88;4836607;29;130108;-86
2022/03/10 03:19:34;;;;;;;7.15;2.65;;;-9.70;1.00;;;-10.59;62.91;101019.16;4816666;29;129434;-87
2022/03/10 03:22:08;;;;;;;7.82;2.53;;;-9.70;1.00;;;-10.69;63.47;101027.00;4831820;29;119169;-90
2022/03/10 03:24:38;;;;;;;6.30;2.60;;;-9.70;1.00;;;-10.68;63.63;101031.28;4837399;29;118260;-90
2022/03/10 03:27:06;;;;;;;3.63;2.00;;;-9.70;1.00;;;-10.61;63.48;101026.31;4837161;29;129202;-89
2022/03/10 03:29:52;;;;;;;5.38;2.53;;;-9.70;1.00;;;-10.69;63.65;101027.00;4821607;29;128875;-91
2022/03/10 03:32:21;;;;;;;4.22;2.20;;;-9.70;1.00;;;-10.66;63.74;101034.59;4821909;29;118816;-89
2022/03/10 03:34:51;;;;;;;6.20;2.40;;;-9.70;1.00;;;-10.72;64.35;101030.75;4838193;29;118951;-90
2022/03/10 03:37:20;;;;;;;5.68;2.60;;;-9.70;1.00;;;-10.79;64.30;101036.66;4835503;29;129726;-92
2022/03/10 03:39:48;;;;;;;6.25;2.72;;;-9.70;1.00;;;-10.86;63.79;101029.31;4821397;29;129028;-92
2022/03/10 03:43:00;;;;;;;5.93;2.78;;;-9.70;1.00;;;-10.74;64.24;101037.06;4821842;29;119192;-90
2022/03/10 03:51:50;;;;;;;4.28;2.25;;;-9.90;1.00;;;-10.75;64.02;101056.41;4837460;29;129611;-89
2022/03/10 03:54:27;;;;;;;5.35;2.50;;;-10.00;1.00;;;-10.94;64.34;101050.13;4821565;29;119355;-92
2022/03/10 03:57:40;;;;;;;8.90;2.42;;;-10.00;1.00;;;-10.93;64.23;101054.41;4852052;29;120317;-89
2022/03/10 04:00:12;;;;;;;6.13;2.40;;;-10.00;1.00;;;-10.94;64.17;101063.25;4820879;29;129736;-89
2022/03/10 04:02:45;;;;;;;6.18;2.42;;;-10.10;1.00;;;-10.95;64.96;101066.84;4841042;28;129156;-88
2022/03/10 04:05:15;;;;;;;7.20;2.72;;;-10.10;1.00;;;-11.06;64.72;101080.06;4871327;28;121163;-89
2022/03/10 04:07:46;;;;;;;5.18;2.25;;;-10.20;1.00;;;-11.10;64.88;101089.13;4874218;28;121062;-91
2022/03/10 04:10:17;;;;;;;8.15;2.50;;;-10.20;1.00;;;-11.09;64.72;101085.56;4858517;28;130592;-89
2022/03/10 04:12:49;;;;;;;4.75;2.15;;;-10.20;1.00;;;-11.09;63.88;101090.81;4839394;28;130035;-90
2022/03/10 04:15:18;;;;;;;5.90;3.33;;;-10.20;1.00;;;-11.18;64.24;101086.34;4854616;28;118907;-91
2022/03/10 04:17:47;;;;;;;5.28;2.20;;;-10.20;1.00;;;-11.03;63.66;101095.50;4838902;28;118900;-90
2022/03/10 04:20:16;;;;;;;5.18;2.83;;;-10.20;1.00;;;-11.01;63.31;101088.34;4815103;29;129762;-90
2022/03/10 04:22:47;;;;;;;6.35;2.40;;;-10.20;1.00;;;-11.04;63.69;101099.09;4831356;29;128787;-89
2022/03/10 04:25:16;;;;;;;8.65;3.03;;;-10.30;1.00;;;-11.14;63.61;101103.47;4816243;29;118653;-88
2022/03/10 04:28:05;;;;;;;4.28;2.15;;;-10.30;1.00;;;-10.99;63.07;101096.91;4818036;29;118435;-90
2022/03/10 04:30:38;;;;;;;14.25;2.90;;;-10.30;1.00;;;-11.02;63.37;101107.66;4815750;29;129220;-90
2022/03/10 04:33:09;;;;;;;6.53;2.80;;;-10.40;1.00;;;-11.13;63.30;101105.13;4832128;29;129247;-89
2022/03/10 04:35:45;;;;;;;7.55;2.75;;;-10.30;1.00;;;-11.15;62.90;101114.94;4817332;29;119401;-88
2022/03/10 04:45:32;;;;;;;6.38;2.75;;;-10.30;1.00;;;-11.06;62.53;101119.38;4798130;29;129390;-90
2022/03/10 04:48:22;;;;;;;5.10;2.47;;;-10.20;1.00;;;-11.05;62.08;101121.03;4835240;29;120006;-88
2022/03/10 04:51:39;;;;;;;8.05;3.25;;;-10.20;1.00;;;-11.04;62.00;101127.94;4844818;29;118948;-87
2022/03/10 04:58:31;;;;;;;8.05;2.90;;;-10.10;1.00;;;-10.84;60.90;101142.00;4826355;29;130098;-88
2022/03/10 05:22:48;;;;;;;10.07;3.22;;;-9.70;1.00;;;-10.39;59.70;101182.72;4857021;29;130775;-91
2022/03/10 05:25:23;;;;;;;12.85;5.78;;;-9.60;1.00;;;-10.39;59.78;101188.00;4823019;29;129023;-91
2022/03/10 05:27:56;;;;;;;68.30;23.43;;;-9.60;1.00;;;-10.32;59.87;101194.34;4823164;29;118304;-89
2022/03/10 05:30:32;;;;;;;69.95;20.73;;;-9.60;1.00;;;-10.11;59.90;101191.66;4836444;29;118098;-91
2022/03/10 05:33:07;;;;;;;172.57;50.40;;;-9.50;1.00;;;-9.87;59.65;101193.88;4834909;29;129635;-93
2022/03/10 05:45:20;;;;;;;8.80;3.47;;;-9.40;1.00;;;-10.04;58.18;101207.69;4822151;29;119867;-91
2022/03/10 06:05:55;;;;;;;8.77;3.05;;;-8.90;1.00;;;-8.94;55.47;101230.25;4726905;29;127494;-93
2022/03/10 06:08:43;;;;;;;11.80;5.90;;;-8.70;1.00;;;-8.81;54.12;101228.16;4759414;29;121131;-92
2022/03/10 06:14:07;;;;;;;6.43;3.03;;;-8.60;1.00;;;-9.10;53.61;101229.06;4768813;29;130690;-93
2022/03/10 06:16:37;;;;;;;7.55;3.03;;;-8.70;1.00;;;-8.77;54.49;101245.34;4743552;29;127561;-92
2022/03/10 06:19:08;;;;;;;5.03;2.83;;;-8.40;1.00;;;-8.79;53.58;101243.81;4730092;29;117903;-90
2022/03/10 06:21:43;;;;;;;9.13;4.18;;;-8.40;1.00;;;-8.62;53.68;101242.25;4792307;29;118764;-92
2022/03/10 06:24:12;;;;;;;9.88;5.10;;;-8.40;1.00;;;-8.54;52.36;101245.84;4825775;29;129300;-92
2022/03/10 06:26:42;;;;;;;7.13;3.22;;;-8.30;1.00;;;-8.63;53.04;101238.78;4801215;29;128504;-94
2022/03/10 06:29:13;;;;;;;7.03;3.00;;;-8.30;1.00;;;-8.46;52.84;101236.38;4800205;29;119778;-92
2022/03/10 06:32:08;;;;;;;6.10;3.33;;;-8.20;1.00;;;-8.09;52.50;101243.41;4800282;29;119048;-92
2022/03/10 06:34:38;;;;;;;6.28;3.38;;;-8.00;1.00;;;-7.98;51.41;101249.31;4802280;29;128850;-92
2022/03/10 06:37:18;;;;;;;9.18;3.45;;;-7.90;1.00;;;-7.88;51.86;101245.75;4816415;29;127944;-91
2022/03/10 06:39:47;;;;;;;10.48;4.03;;;-7.80;1.00;;;-8.02;51.22;101245.31;4802177;29;118129;-88
2022/03/10 06:42:16;;;;;;;11.23;3.47;;;-7.80;1.00;;;-7.72;51.09;101245.94;4794918;29;118180;-91
2022/03/10 06:50:36;;;;;;;6.28;2.38;;;-7.50;1.00;;;-7.65;49.57;101246.19;4833642;28;119899;-93
2022/03/10 06:59:16;;;;;;;11.40;3.63;;;-7.30;1.00;;;-7.75;49.46;101277.88;4820696;29;127912;-90
2022/03/10 07:04:49;;;;;;;8.73;3.42;;;-7.10;1.00;;;-7.15;48.04;101276.50;4836948;29;121249;-91
2022/03/10 07:07:18;;;;;;;6.35;3.25;;;-6.90;1.00;;;-6.81;47.66;101284.53;4820321;29;129250;-92
2022/03/10 07:09:47;;;;;;;5.95;2.75;;;-6.70;1.00;;;-6.62;46.31;101280.88;4819928;29;128842;-91
2022/03/10 07:12:17;;;;;;;6.75;3.17;;;-6.60;1.00;;;-7.07;46.67;101281.88;4834342;29;118818;-91
2022/03/10 07:14:47;;;;;;;6.38;3.35;;;-6.70;1.00;;;-7.26;46.46;101283.69;4821561;29;118752;-92
2022/03/10 07:17:16;;;;;;;7.20;3.35;;;-6.80;1.00;;;-7.58;46.55;101289.44;4821289;29;129173;-91
2022/03/10 07:19:49;;;;;;;8.75;3.30;;;-7.00;1.00;;;-7.01;46.99;101298.88;4835713;29;128346;-94
2022/03/10 07:22:19;;;;;;;10.00;4.07;;;-6.70;1.00;;;-7.12;45.97;101294.66;4822289;29;119174;-90
2022/03/10 07:24:48;;;;;;;7.18;3.28;;;-6.80;1.00;;;-7.17;45.60;101291.66;4840101;29;118835;-92
2022/03/10 07:27:21;;;;;;;6.63;2.78;;;-6.80;1.00;;;-7.44;46.20;101306.56;4839429;29;129307;-93
2022/03/10 07:29:50;;;;;;;5.28;2.92;;;-6.80;1.00;;;-6.78;45.82;101293.97;4841278;29;128826;-93
2022/03/10 07:32:19;;;;;;;10.27;2.67;;;-6.60;1.00;;;-6.79;45.77;101310.78;4828503;29;118519;-90
2022/03/10 07:34:50;;;;;;;5.18;2.53;;;-6.50;1.00;;;-6.91;45.02;101303.09;4826379;29;118839;-91
2022/03/10 07:37:24;;;;;;;8.05;2.45;;;-6.50;1.00;;;-6.90;44.55;101315.31;4827367;29;128577;-90
2022/03/10 07:39:56;;;;;;;6.53;2.50;;;-6.50;1.00;;;-7.06;44.98;101299.34;4826823;29;128820;-91
2022/03/10 07:42:25;;;;;;;7.45;2.75;;;-6.60;1.00;;;-7.31;45.56;101307.03;4811776;29;118701;-92
2022/03/10 07:44:57;;;;;;;32.85;4.80;;;-6.70;1.00;;;-6.61;45.08;101316.84;4825565;29;117760;-90
2022/03/10 07:47:27;;;;;;;6.55;2.92;;;-6.30;1.00;;;-6.93;44.15;101320.09;4823774;29;128923;-91
2022/03/10 07:49:58;;;;;;;5.43;2.15;;;-6.50;1.00;;;-6.79;43.96;101321.34;4826044;29;128041;-90
2022/03/10 07:52:27;;;;;;;5.75;2.80;;;-6.40;1.00;;;-6.83;43.47;101322.63;4824327;29;121203;-91
2022/03/10 07:55:55;;;;;;;5.82;3.13;;;-6.30;1.00;;;-6.92;42.89;101327.84;4824283;29;120997;-91
2022/03/10 07:58:29;;;;;;;7.47;2.90;;;-6.30;1.00;;;-6.54;43.33;101309.97;4865358;29;129556;-90
2022/03/10 08:01:20;;;;;;;8.05;3.58;;;-6.20;1.00;;;-6.51;43.08;101308.84;4852342;29;128780;-89
2022/03/10 08:03:56;;;;;;;12.15;2.63;;;-6.10;1.00;;;-5.90;42.50;101312.28;4849814;29;118622;-91
2022/03/10 08:06:27;;;;;;;5.97;2.70;;;-5.80;1.00;;;-5.50;42.24;101318.72;4839336;29;119346;-92
2022/03/10 08:09:31;;;;;;;7.10;2.92;;;-5.50;1.00;;;-5.83;41.12;101318.63;4833986;29;129166;-92
2022/03/10 08:12:13;;;;;;;5.75;2.65;;;-5.60;1.00;;;-6.04;41.58;101307.63;4852996;29;129726;-91
2022/03/10 08:18:23;;;;;;;7.20;2.60;;;-5.50;1.00;;;-6.08;40.51;101308.94;4797651;27;9998921;-87
2022/03/10 08:21:08;;;;;;;4.25;2.50;;;-5.80;1.00;;;-6.14;40.97;101315.66;5094070;27;118757;-85
2022/03/10 08:23:49;;;;;;;4.68;2.38;;;-5.70;1.00;;;-5.98;40.24;101320.22;5120988;27;113162;-86
2022/03/10 08:26:19;;;;;;;12.50;3.47;;;-5.60;1.00;;;-5.81;40.55;101314.00;5092970;27;129624;-87
2022/03/10 08:28:56;;;;;;;9.23;2.97;;;-5.50;1.00;;;-5.96;40.31;101312.94;5086115;27;129391;-88
2022/03/10 08:31:41;;;;;;;8.82;2.78;;;-5.60;1.00;;;-5.58;40.39;101305.44;5087200;27;118234;-86
2022/03/10 08:34:25;;;;;;;5.75;2.75;;;-5.40;1.00;;;-5.53;39.64;101313.75;5077327;27;113654;-85
2022/03/10 08:36:54;;;;;;;;;;;-5.30;1.00;;;-5.39;39.87;101308.81;5072469;27;129901;-88
2022/03/10 08:39:43;;;;;;;5.07;2.75;;;-5.20;1.00;;;-4.94;40.17;101307.53;5068641;27;129300;-88
2022/03/10 08:46:16;;;;;;;7.15;3.42;;;-4.60;1.00;;;-4.49;38.19;101295.59;5090639;27;112749;-86
2022/03/10 08:49:02;;;;;;;4.97;2.55;;;-4.70;1.00;;;-4.77;37.71;101309.22;5057171;27;129101;-88
2022/03/10 08:52:13;;;;;;;9.90;2.72;;;-4.80;1.00;;;-4.70;37.96;101312.03;5064030;27;128624;-86
2022/03/10 08:54:44;;;;;;;6.18;2.67;;;-4.80;1.00;;;-4.26;37.27;101313.47;5053200;27;117556;-86
2022/03/10 08:57:23;;;;;;;8.15;2.85;;;-4.60;1.00;;;-5.17;38.50;101312.66;5056195;27;112323;-87
2022/03/10 08:59:54;;;;;;;5.70;2.33;;;-5.00;1.00;;;-4.08;37.97;101306.13;5067536;27;127861;-86
2022/03/10 09:02:25;;;;;;;6.55;2.70;;;-4.70;1.00;;;-3.80;37.45;101300.38;5060936;27;127536;-86
2022/03/10 09:04:57;;;;;;;6.07;2.60;;;-4.40;1.00;;;-3.55;36.74;101309.06;5045833;27;116947;-86
2022/03/10 09:07:44;;;;;;;9.45;3.50;;;-4.20;1.00;;;-3.16;35.65;101307.34;5066557;27;115235;-88
2022/03/10 09:10:18;;;;;;;11.10;3.87;;;-4.00;1.00;;;-3.03;35.01;101302.25;5033302;27;130004;-87
2022/03/10 09:12:51;;;;;;;8.55;2.88;;;-3.80;1.00;;;-3.25;35.48;101299.41;5064922;27;128114;-87
2022/03/10 09:18:11;;;;;;;7.38;3.50;;;-3.90;1.00;;;-3.11;34.69;101304.97;5078504;27;111535;-88
2022/03/10 09:20:47;;;;;;;8.25;3.53;;;-3.80;1.00;;;-4.06;35.35;101305.94;5046121;27;129089;-87
2022/03/10 09:23:23;;;;;;;4.88;2.45;;;-4.40;1.00;;;-4.17;35.93;101309.78;5060867;27;128441;-85
2022/03/10 09:25:52;;;;;;;7.78;2.80;;;-4.30;1.00;;;-3.92;35.52;101307.06;5041116;27;116595;-86
2022/03/10 09:28:23;;;;;;;6.78;2.50;;;-4.20;1.00;;;-3.98;36.39;101303.25;5042623;27;111915;-85
2022/03/10 09:31:12;;;;;;;5.28;2.85;;;-4.20;1.00;;;-4.18;36.46;101308.13;5059930;27;129486;-88
2022/03/10 09:33:45;;;;;;;5.32;2.85;;;-4.10;1.00;;;-3.72;35.53;101308.31;5014134;27;128685;-87
2022/03/10 09:36:15;;;;;;;6.60;2.97;;;-4.00;1.00;;;-3.19;35.50;101310.34;5030287;27;116574;-86
2022/03/10 09:38:53;;;;;;;6.88;2.83;;;-3.70;1.00;;;-2.63;34.69;101307.44;5049158;27;114223;-89
2022/03/10 09:41:24;;;;;;;7.50;3.10;;;-3.40;1.00;;;-2.22;33.62;101307.84;5044908;27;129326;-87
2022/03/10 09:43:59;;;;;;;6.75;3.75;;;-3.30;1.00;;;-2.79;33.57;101303.91;5045923;27;128740;-85
2022/03/10 09:46:40;;;;;;;7.40;3.05;;;-3.50;1.00;;;-3.04;34.79;101295.28;5045587;27;116377;-84
2022/03/10 09:49:09;;;;;;;7.53;3.20;;;-3.50;1.00;;;-2.86;35.14;101307.44;5029887;27;111610;-83
2022/03/10 09:51:56;;;;;;;5.10;2.72;;;-3.40;1.00;;;-3.11;35.11;101310.28;5057303;27;127379;-86
2022/03/10 09:54:35;;;;;;;8.40;3.58;;;-3.40;1.00;;;-3.32;34.26;101301.13;5044362;27;128033;-85
2022/03/10 09:57:14;;;;;;;8.43;3.28;;;-3.50;1.00;;;-3.30;35.08;101307.09;5041105;27;117452;-84
2022/03/10 10:00:08;;;;;;;7.00;2.55;;;-3.40;1.00;;;-2.81;34.48;101310.38;5049699;27;112867;-83
2022/03/10 10:06:08;;;;;;;5.05;2.40;;;-3.40;1.00;;;-3.27;34.19;101319.19;5045977;27;127933;-84
2022/03/10 10:08:44;;;;;;;6.07;2.45;;;-3.50;1.00;;;-3.17;33.73;101321.63;5034209;27;118329;-85
2022/03/10 10:11:46;;;;;;;6.88;2.80;;;-3.30;1.00;;;-3.09;33.81;101313.59;5044278;27;111897;-85
2022/03/10 10:15:02;;;;;;;15.20;6.07;;;-3.20;1.00;;;-2.73;33.12;101313.81;5046218;27;128507;-84
2022/03/10 10:21:00;;;;;;;6.72;3.10;;;-3.20;1.00;;;-2.41;32.95;101319.03;5058493;27;118744;-84
2022/03/10 10:23:34;;;;;;;5.90;2.60;;;-2.90;1.00;;;-3.00;32.67;101317.84;5027932;27;113498;-87
2022/03/10 10:26:06;;;;;;;7.38;2.60;;;-3.20;1.00;;;-3.09;31.82;101324.22;5035187;27;128846;-87
2022/03/10 10:28:39;;;;;;;8.55;3.50;;;-3.20;1.00;;;-2.73;31.97;101323.59;5035478;27;128692;-86
2022/03/10 10:31:10;;;;;;;5.55;2.30;;;-3.00;1.00;;;-3.00;32.34;101323.16;5034738;27;117669;-86
2022/03/10 10:33:41;;;;;;;15.02;4.45;;;-2.90;1.00;;;-3.17;32.38;101325.09;5035192;27;112772;-87
2022/03/10 10:36:18;;;;;;;10.75;3.92;;;-3.10;1.00;;;-2.34;33.01;101327.91;5034398;27;129325;-87
2022/03/10 10:38:48;;;;;;;7.40;2.88;;;-2.70;1.00;;;-2.33;32.02;101318.94;5033947;27;129253;-84
2022/03/10 10:41:30;;;;;;;7.45;3.28;;;-2.60;1.00;;;-1.84;31.81;101321.06;5018178;27;118423;-86
2022/03/10 10:44:03;;;;;;;4.53;2.30;;;-2.40;1.00;;;-2.50;33.04;101318.25;5052029;27;111774;-85
2022/03/10 10:46:35;;;;;;;8.88;2.97;;;-2.70;1.00;;;-2.40;33.31;101315.34;5034489;27;130561;-87
2022/03/10 10:49:09;;;;;;;11.10;4.20;;;-2.80;1.00;;;-2.95;34.19;101314.66;5034909;27;128920;-86
2022/03/10 10:51:46;;;;;;;23.42;8.80;;;-3.10;1.00;;;-2.86;33.65;101318.09;5035065;27;118393;-85
2022/03/10 10:54:27;;;;;;;6.25;3.22;;;-3.10;1.00;;;-3.19;34.18;101323.63;5035242;27;113167;-85
2022/03/10 10:56:58;;;;;;;6.78;2.63;;;-3.20;1.00;;;-3.28;34.31;101322.84;5034952;27;128856;-88
2022/03/10 10:59:34;;;;;;;9.52;4.22;;;-3.30;1.00;;;-3.19;34.59;101326.28;5035653;27;129557;-86
2022/03/10 11:02:09;;;;;;;8.07;3.03;;;-3.00;1.00;;;-2.93;34.21;101317.94;5034655;27;117191;-86
2022/03/10 11:04:39;;;;;;;9.40;3.80;;;-3.00;1.00;;;-3.21;34.84;101320.31;5034595;27;112379;-87
2022/03/10 11:07:09;;;;;;;4.00;2.50;;;-3.00;1.00;;;-3.43;33.69;101317.44;5034791;27;129123;-86
2022/03/10 11:09:51;;;;;;;6.05;2.70;;;-3.20;1.00;;;-3.38;34.95;101308.94;5034448;27;129300;-87
2022/03/10 11:12:21;;;;;;;4.75;2.50;;;-3.20;1.00;;;-3.15;34.09;101308.97;5034897;27;117770;-86
2022/03/10 11:14:51;;;;;;;6.72;2.65;;;-3.10;1.00;;;-3.40;33.34;101306.47;5018551;27;112281;-85
2022/03/10 11:17:20;;;;;;;4.38;2.25;;;-3.20;1.00;;;-2.99;33.80;101306.22;5039417;27;129283;-86
2022/03/10 11:19:51;;;;;;;5.20;2.30;;;-2.90;1.00;;;-2.94;33.49;101306.50;5031085;27;129171;-85
2022/03/10 11:22:31;;;;;;;4.40;2.30;;;-2.90;1.00;;;-2.63;32.79;101308.25;5031294;27;117662;-86
2022/03/10 11:25:24;;;;;;;5.03;2.67;;;-2.60;1.00;;;-2.89;33.33;101309.44;5031442;27;113071;-86
2022/03/10 11:27:58;;;;;;;6.47;2.58;;;-2.80;1.00;;;-2.46;32.47;101316.06;5049863;27;128586;-87
2022/03/10 11:30:34;;;;;;;5.35;2.88;;;-2.50;1.00;;;-2.19;32.60;101311.97;5033226;27;129138;-86
2022/03/10 11:33:06;;;;;;;5.03;2.35;;;-2.40;1.00;;;-2.61;32.20;101316.03;5031779;27;117224;-88
2022/03/10 11:35:41;;;;;;;6.72;2.70;;;-2.50;1.00;;;-2.68;32.12;101321.25;5031533;27;112397;-85
2022/03/10 11:38:11;;;;;;;7.57;2.50;;;-2.50;1.00;;;-2.54;31.58;101320.47;5014116;27;128014;-88
2022/03/10 11:40:49;;;;;;;7.38;2.50;;;-2.50;1.00;;;-2.41;32.11;101316.34;5030861;27;128155;-86
2022/03/10 11:43:33;;;;;;;7.35;2.60;;;-2.40;1.00;;;-2.30;32.07;101318.56;5030771;27;118804;-86
2022/03/10 11:46:28;;;;;;;6.13;3.13;;;-2.30;1.00;;;-2.43;33.26;101315.69;5013357;27;112255;-87
2022/03/10 11:49:11;;;;;;;5.72;2.65;;;-2.30;1.00;;;-2.30;33.34;101313.25;4992753;28;128781;-86
2022/03/10 11:51:53;;;;;;;7.70;2.63;;;-2.30;1.00;;;-2.66;32.23;101319.25;5010021;28;128532;-87
2022/03/10 11:54:27;;;;;;;3.95;2.00;;;-2.50;1.00;;;-2.62;31.07;101307.22;5011846;28;117700;-88
2022/03/10 11:57:06;;;;;;;4.63;2.05;;;-2.40;1.00;;;-2.28;30.79;101305.91;5013105;28;112809;-87
2022/03/10 11:59:52;;;;;;;4.43;2.20;;;-2.20;1.00;;;-2.01;29.38;101312.44;5011939;28;128880;-88
2022/03/10 12:02:48;;;;;;;8.35;2.35;;;-2.10;1.00;;;-1.70;29.50;101302.59;5012671;28;128835;-89
2022/03/10 12:05:26;;;;;;;4.25;2.40;;;-1.90;1.00;;;-1.70;29.50;101307.91;5027901;28;117845;-88
2022/03/10 12:07:58;;;;;;;5.03;2.72;;;-1.80;1.00;;;-1.65;29.44;101305.53;5012269;28;112172;-88
2022/03/10 12:10:43;;;;;;;7.72;3.28;;;-1.80;1.00;;;-1.91;29.60;101309.50;5028053;28;131625;-91
2022/03/10 12:13:49;;;;;;;8.20;2.72;;;-2.00;1.00;;;-1.98;30.61;101305.91;5014640;28;128505;-87
2022/03/10 12:16:42;;;;;;;7.55;3.22;;;-1.90;1.00;;;-1.86;31.31;101298.28;5012420;28;119189;-87
2022/03/10 12:19:16;;;;;;;8.50;3.88;;;-1.90;1.00;;;-1.79;31.02;101295.72;5041132;27;112598;-88
2022/03/10 12:21:49;;;;;;;19.58;10.27;;;-1.80;1.00;;;-1.68;30.83;101297.91;5032593;27;128772;-87
2022/03/10 12:24:40;;;;;;;16.30;9.35;;;-1.90;1.00;;;-1.53;30.75;101303.19;5029873;27;130957;-89
2022/03/10 12:27:10;;;;;;;9.15;4.20;;;-1.70;1.00;;;-1.46;28.79;101288.94;5000305;27;118106;-88
2022/03/10 12:29:42;;;;;;;17.15;7.20;;;-1.70;1.00;;;-1.54;30.02;101301.53;5032593;27;112821;-89
2022/03/10 12:32:16;;;;;;;9.02;5.35;;;-1.70;1.00;;;-1.65;29.82;101289.56;5010074;28;128206;-88
2022/03/10 12:34:50;;;;;;;9.05;2.88;;;-1.70;1.00;;;-1.51;30.48;101288.69;5012027;28;128603;-88
2022/03/10 12:37:22;;;;;;;5.50;2.60;;;-1.70;1.00;;;-1.16;30.11;101278.19;5012106;28;117798;-89
2022/03/10 12:39:53;;;;;;;6.10;3.25;;;-1.60;1.00;;;-1.37;29.78;101275.50;4996734;28;112770;-88
2022/03/10 12:42:24;;;;;;;7.70;2.25;;;-1.60;1.00;;;-1.68;29.06;101289.94;5009252;28;129196;-88
2022/03/10 12:44:56;;;;;;;3.95;2.15;;;-1.70;1.00;;;-1.61;28.50;101296.13;5012096;28;128486;-89
2022/03/10 12:48:15;;;;;;;4.10;2.05;;;-1.70;1.00;;;-1.60;28.88;101276.50;5015700;28;118273;-87
2022/03/10 12:57:25;;;;;;;4.57;1.65;;;-1.60;1.00;;;-1.22;27.90;101270.94;5080689;27;128762;-88
2022/03/10 13:00:00;;;;;;;3.15;1.63;;;-1.40;1.00;;;-1.51;27.19;101283.38;5081885;27;128883;-88
2022/03/10 13:02:38;;;;;;;3.75;1.90;;;-1.60;1.00;;;-2.03;28.37;101292.34;5084070;27;117682;-89
2022/03/10 13:05:13;;;;;;;2.67;1.40;;;-1.80;1.00;;;-1.89;28.62;101288.03;5085499;27;111522;-87
2022/03/10 13:07:48;;;;;;;5.78;2.10;;;-1.70;1.00;;;-1.45;29.27;101273.78;5082944;27;128721;-89
2022/03/10 13:10:38;;;;;;;4.57;2.58;;;-1.60;1.00;;;-1.17;29.37;101273.88;5065933;27;128343;-86
2022/03/10 13:13:11;;;;;;;5.00;2.83;;;-1.40;1.00;;;-1.09;29.42;101272.94;5035033;27;118398;-88
2022/03/10 13:15:49;;;;;;;7.43;2.92;;;-1.30;1.00;;;-1.78;30.33;101278.75;5080834;27;112945;-88
2022/03/10 13:21:36;;;;;;;8.50;3.05;;;-1.70;1.00;;;-1.72;31.10;101278.00;5098090;27;129046;-88
2022/03/10 13:24:41;;;;;;;4.88;2.30;;;-1.60;1.00;;;-1.62;31.02;101273.22;5043681;27;117487;-85
2022/03/10 13:27:34;;;;;;;4.15;1.75;;;-1.50;1.00;;;-1.85;30.13;101268.84;5080619;27;112682;-88
2022/03/10 13:30:07;;;;;;;2.70;1.70;;;-1.70;1.00;;;-2.19;30.77;101277.41;5081675;27;128811;-88
2022/03/10 13:32:39;;;;;;;3.53;1.88;;;-1.80;1.00;;;-1.87;30.20;101268.19;5083403;27;128180;-89
2022/03/10 13:41:12;;;;;;;5.63;1.95;;;-1.70;1.00;;;-1.83;28.65;101271.31;5090568;27;128915;-89
2022/03/10 13:43:47;;;;;;;8.23;2.60;;;-1.60;1.00;;;-2.21;29.43;101264.28;5059037;27;129424;-87
2022/03/10 13:46:21;;;;;;;5.63;2.50;;;-1.80;1.00;;;-2.08;29.64;101258.31;5037218;27;117337;-88
2022/03/10 13:49:19;;;;;;;5.13;2.08;;;-1.70;1.00;;;-1.97;28.99;101259.66;5037354;27;113239;-87
2022/03/10 13:51:52;;;;;;;4.47;2.00;;;-1.70;1.00;;;-2.04;29.23;101261.41;5086091;27;130082;-89
2022/03/10 13:54:36;;;;;;;;;;;-1.70;1.00;;;-1.75;27.91;101263.22;5055047;27;129195;-87
2022/03/10 13:57:29;;;;;;;4.03;2.35;;;-1.60;1.00;;;-2.15;27.62;101267.19;5058820;27;118629;-83
2022/03/10 14:00:09;;;;;;;3.90;1.70;;;-1.80;1.00;;;-1.93;28.65;101270.75;5063657;27;112448;-88
2022/03/10 14:02:56;;;;;;;2.30;1.40;;;-1.60;1.00;;;-1.94;27.94;101261.16;5078097;27;129568;-87
2022/03/10 14:05:25;;;;;;;4.85;2.20;;;-1.60;1.00;;;-1.76;28.10;101260.72;5047519;27;127914;-85
2022/03/10 14:08:16;;;;;;;2.45;1.33;;;-1.60;1.00;;;-1.72;27.61;101262.84;5032500;27;117890;-86
2022/03/10 14:10:47;;;;;;;3.78;1.98;;;-1.60;1.00;;;-1.87;27.79;101254.91;5062721;27;113614;-86
2022/03/10 14:13:21;;;;;;;2.63;1.52;;;-1.60;1.00;;;-1.88;27.85;101258.56;5049080;27;128359;-88
2022/03/10 14:15:59;;;;;;;3.58;1.67;;;-1.70;1.00;;;-1.86;27.97;101256.53;5062107;27;129214;-87
2022/03/10 14:18:50;;;;;;;11.75;2.22;;;-1.70;1.00;;;-1.62;27.95;101259.91;5062986;27;119183;-86
2022/03/10 14:21:30;;;;;;;3.38;1.70;;;-1.60;1.00;;;-1.88;27.69;101252.41;5018186;27;112512;-86